Terminal Aerodrome Forecast
Issued by NWS Cleveland, OH

Home | Current Version | Previous Version | Graphics & Text | Print | Product List | Glossary Off
Versions: 1 2 3 4 5 6 7 8 9 10 11 12 13 14 15 16 17 18 19 20 21 22 23

000
FTUS41 KCLE 181100
TAFTOL
TAF
KTOL 181131Z 1812/1912 24003KT P6SM SCT080
     FM181400 35008KT P6SM FEW050 SCT250
     FM181700 05012KT P6SM FEW050 SCT250
     FM182000 05012G20KT P6SM FEW050 BKN250
     FM190100 06012KT P6SM BKN200=

USA.gov is the U.S. government's official web portal to all federal, state and local government web resources and services.